Time;durP1;ratioP1;P1;durP2;ratioP2;P2;SDS_P1;SDS_P2;PMS_P1;PMS_P2;Temp;Humidity;BMP_temperature;BMP_pressure;BME280_temperature;BME280_humidity;BME280_pressure;Samples;Min_cycle;Max_cycle;Signal;HPM_P1;HPM_P2
2023/11/16 00:01:02;;;;;;;10.65;3.03;;;;;;;11.26;75.54;99510.91;5030364;28;20111;-80
2023/11/16 00:03:28;;;;;;;11.65;3.60;;;;;;;11.25;75.65;99528.50;5030457;28;20049;-79
2023/11/16 00:05:55;;;;;;;8.70;3.13;;;;;;;11.24;75.57;99518.91;5026418;28;20104;-78
2023/11/16 00:08:22;;;;;;;8.20;3.40;;;;;;;11.26;75.64;99519.69;5022137;28;20045;-79
2023/11/16 00:10:48;;;;;;;8.38;3.60;;;;;;;11.25;75.71;99519.78;5030516;28;20049;-80
2023/11/16 00:13:15;;;;;;;9.15;3.03;;;;;;;11.25;75.60;99515.34;5030184;28;20115;-79
2023/11/16 00:15:42;;;;;;;9.32;3.72;;;;;;;11.25;75.67;99525.03;5030369;28;20049;-79
2023/11/16 00:18:09;;;;;;;13.25;3.83;;;;;;;11.25;75.53;99515.34;5027638;28;20046;-80
2023/11/16 00:20:36;;;;;;;9.85;3.58;;;;;;;11.26;75.50;99517.06;5030263;28;20076;-79
2023/11/16 00:23:03;;;;;;;11.43;3.65;;;;;;;11.27;75.70;99525.78;5030088;28;20052;-76
2023/11/16 00:25:31;;;;;;;13.52;3.28;;;;;;;11.26;75.41;99521.47;5030435;28;20057;-80
2023/11/16 00:27:59;;;;;;;12.77;3.03;;;;;;;11.27;75.51;99509.97;5023116;28;20135;-79
2023/11/16 00:30:26;;;;;;;12.10;3.08;;;;;;;11.27;75.49;99510.81;5028465;28;20486;-79
2023/11/16 00:32:53;;;;;;;11.15;3.58;;;;;;;11.27;75.42;99524.00;5025802;28;20136;-79
2023/11/16 00:35:20;;;;;;;7.72;2.50;;;;;;;11.28;75.40;99517.78;5030374;28;20045;-78
2023/11/16 00:37:50;;;;;;;14.20;3.38;;;;;;;11.28;75.38;99511.66;5026278;28;20087;-79
2023/11/16 00:40:17;;;;;;;10.65;3.50;;;;;;;11.27;75.31;99516.09;5029955;28;20076;-79
2023/11/16 00:42:44;;;;;;;13.57;3.33;;;;;;;11.27;75.22;99513.47;5029520;28;20139;-80
2023/11/16 00:45:10;;;;;;;9.60;3.20;;;;;;;11.27;75.03;99516.09;5030051;28;20045;-79
2023/11/16 00:47:39;;;;;;;11.60;3.42;;;;;;;11.25;75.19;99506.59;5028564;28;20410;-79
2023/11/16 00:50:07;;;;;;;11.52;3.72;;;;;;;11.21;75.35;99498.88;5030020;28;20048;-79
2023/11/16 00:52:34;;;;;;;14.07;3.95;;;;;;;11.20;75.33;99513.00;5029873;28;20104;-79
2023/11/16 00:55:04;;;;;;;14.40;3.50;;;;;;;11.19;75.49;99515.75;5030025;28;20045;-79
2023/11/16 00:57:31;;;;;;;10.07;4.28;;;;;;;11.18;75.62;99512.25;5020266;28;20541;-79
2023/11/16 00:59:58;;;;;;;12.85;4.57;;;;;;;11.17;75.55;99512.34;5025486;28;20141;-81
2023/11/16 01:02:25;;;;;;;13.98;4.47;;;;;;;11.16;75.67;99506.25;5028573;28;20433;-80
2023/11/16 01:04:52;;;;;;;14.43;4.97;;;;;;;11.16;75.73;99515.91;5028724;28;20490;-79
2023/11/16 01:07:19;;;;;;;8.50;3.60;;;;;;;11.14;75.63;99505.47;5027327;28;20049;-80
2023/11/16 01:09:46;;;;;;;12.65;4.75;;;;;;;11.13;75.73;99511.69;5025573;28;20045;-80
2023/11/16 01:12:15;;;;;;;11.77;4.32;;;;;;;11.13;75.80;99506.44;5029731;28;20050;-79
2023/11/16 01:14:44;;;;;;;15.52;4.13;;;;;;;11.14;75.84;99521.28;5029993;28;20042;-78
2023/11/16 01:17:18;;;;;;;13.45;4.45;;;;;;;11.13;75.79;99521.38;5029474;28;20046;-81
2023/11/16 01:19:46;;;;;;;14.45;4.47;;;;;;;11.13;75.76;99526.66;5031624;28;20073;-79
2023/11/16 01:22:16;;;;;;;14.65;4.07;;;;;;;11.10;75.40;99505.78;5032450;28;20112;-79
2023/11/16 01:24:44;;;;;;;12.20;4.18;;;;;;;11.08;75.47;99525.19;5033811;28;20057;-79
2023/11/16 01:27:25;;;;;;;15.25;4.55;;;;;;;11.08;75.83;99530.44;5024191;28;20453;-79
2023/11/16 01:29:52;;;;;;;11.93;3.92;;;;;;;11.08;75.79;99522.53;5019979;28;20486;-79
2023/11/16 01:32:19;;;;;;;13.63;4.07;;;;;;;11.08;75.93;99533.09;5032864;28;20057;-81
2023/11/16 01:34:46;;;;;;;14.77;3.67;;;;;;;11.08;75.85;99540.97;5033000;28;20513;-79
2023/11/16 01:37:13;;;;;;;9.88;3.72;;;;;;;11.07;75.64;99539.25;5033193;28;20087;-79
2023/11/16 01:39:40;;;;;;;15.75;4.93;;;;;;;11.06;75.50;99547.25;5027887;28;20064;-79
2023/11/16 01:42:09;;;;;;;14.98;4.80;;;;;;;11.06;75.73;99552.53;4993385;23;20140;-73
2023/11/16 01:44:36;;;;;;;9.55;3.22;;;;;;;11.03;75.65;99561.47;5033148;28;20056;-76
2023/11/16 01:47:07;;;;;;;8.65;3.45;;;;;;;11.04;75.63;99565.81;5033055;28;20087;-73
2023/11/16 01:49:35;;;;;;;8.93;3.67;;;;;;;11.04;75.68;99541.25;5032954;28;20057;-72
2023/11/16 01:52:04;;;;;;;10.93;3.20;;;;;;;11.03;75.78;99555.38;5032987;28;20127;-76
2023/11/16 01:54:31;;;;;;;8.13;3.03;;;;;;;11.02;75.82;99561.56;5032868;28;20060;-75
2023/11/16 01:56:58;;;;;;;13.18;4.00;;;;;;;11.01;75.70;99555.47;5032889;28;20697;-73
2023/11/16 01:59:31;;;;;;;13.43;3.60;;;;;;;11.00;75.51;99556.41;5031328;28;20049;-76
2023/11/16 02:01:57;;;;;;;6.30;3.22;;;;;;;11.00;75.70;99551.16;5032571;28;20049;-74
2023/11/16 02:04:24;;;;;;;10.07;3.08;;;;;;;10.99;75.53;99554.69;5032839;28;20402;-75
2023/11/16 02:06:54;;;;;;;7.88;3.13;;;;;;;10.97;75.51;99553.97;5032554;28;20053;-75
2023/11/16 02:09:21;;;;;;;12.02;3.05;;;;;;;10.95;75.59;99551.41;5032272;28;20073;-74
2023/11/16 02:11:48;;;;;;;10.40;3.08;;;;;;;10.93;75.57;99553.31;5032349;28;20041;-74
2023/11/16 02:14:14;;;;;;;9.43;3.00;;;;;;;10.90;75.50;99553.50;5032366;28;20127;-75
2023/11/16 02:16:41;;;;;;;8.15;3.00;;;;;;;10.88;75.49;99550.09;5032492;28;20050;-74
2023/11/16 02:19:27;;;;;;;9.68;2.72;;;;;;;10.82;74.47;99543.44;5032405;28;20446;-75
2023/11/16 02:21:55;;;;;;;14.15;2.90;;;;;;;10.84;75.13;99545.13;5032078;28;20556;-74
2023/11/16 02:24:22;;;;;;;6.30;2.30;;;;;;;10.80;75.17;99550.56;5032186;28;20057;-73
2023/11/16 02:26:50;;;;;;;9.27;2.35;;;;;;;10.75;75.21;99549.16;5032490;28;20041;-75
2023/11/16 02:29:17;;;;;;;8.40;2.45;;;;;;;10.73;75.38;99546.63;5030761;28;20085;-72
2023/11/16 02:31:43;;;;;;;5.18;2.25;;;;;;;10.69;75.55;99548.59;5031890;28;20081;-75
2023/11/16 02:34:10;;;;;;;10.35;2.33;;;;;;;10.66;75.48;99555.84;5032099;28;20060;-75
2023/11/16 02:36:38;;;;;;;9.63;2.33;;;;;;;10.63;75.48;99561.28;5024278;28;20401;-75
2023/11/16 02:39:06;;;;;;;6.13;2.20;;;;;;;10.61;75.85;99563.19;5031941;28;20053;-73
2023/11/16 02:41:34;;;;;;;8.13;2.10;;;;;;;10.59;76.03;99554.53;5031312;28;20049;-75
2023/11/16 02:44:02;;;;;;;5.22;1.67;;;;;;;10.57;76.22;99557.25;5032232;28;20068;-74
2023/11/16 02:46:29;;;;;;;9.15;1.83;;;;;;;10.58;76.51;99571.25;5031917;28;20057;-73
2023/11/16 02:48:56;;;;;;;7.80;2.17;;;;;;;10.58;76.57;99574.72;5031635;28;20077;-75
2023/11/16 02:51:22;;;;;;;9.23;1.60;;;;;;;10.60;76.63;99567.59;5031541;28;20053;-72
2023/11/16 02:53:49;;;;;;;6.88;2.03;;;;;;;10.60;76.47;99562.31;5030365;28;20049;-75
2023/11/16 02:56:16;;;;;;;7.93;1.70;;;;;;;10.63;76.31;99575.31;5031782;28;20502;-75
2023/11/16 02:58:43;;;;;;;11.35;2.08;;;;;;;10.65;76.54;99564.69;5031717;28;20099;-73
2023/11/16 03:01:14;;;;;;;5.95;1.83;;;;;;;10.66;76.63;99567.22;5031491;28;20057;-74
2023/11/16 03:03:40;;;;;;;5.47;1.70;;;;;;;10.68;76.36;99565.34;5024095;28;20056;-75
2023/11/16 03:06:08;;;;;;;6.88;1.50;;;;;;;10.70;76.42;99560.00;5031460;28;20103;-74
2023/11/16 03:08:35;;;;;;;5.43;1.42;;;;;;;10.71;76.37;99560.81;5031113;28;20127;-75
2023/11/16 03:11:02;;;;;;;5.78;1.20;;;;;;;10.73;76.27;99561.59;5031380;28;20453;-75
2023/11/16 03:13:30;;;;;;;5.55;1.30;;;;;;;10.74;76.32;99565.91;5031102;28;20049;-73
2023/11/16 03:15:56;;;;;;;8.20;1.52;;;;;;;10.74;76.18;99561.50;5031430;28;20415;-75
2023/11/16 03:18:23;;;;;;;4.93;1.30;;;;;;;10.77;76.25;99560.47;5029810;28;20057;-74
2023/11/16 03:20:50;;;;;;;4.38;1.58;;;;;;;10.78;76.20;99565.63;5031023;28;20057;-75
2023/11/16 03:23:16;;;;;;;7.45;1.70;;;;;;;10.80;76.41;99568.16;5030740;28;20100;-75
2023/11/16 03:25:43;;;;;;;6.03;1.50;;;;;;;10.81;76.14;99573.31;5030998;28;20487;-75
2023/11/16 03:28:10;;;;;;;8.20;1.50;;;;;;;10.82;76.20;99569.78;5029782;28;20059;-73
2023/11/16 03:30:38;;;;;;;4.10;1.48;;;;;;;10.85;76.29;99568.75;5030996;28;20049;-74
2023/11/16 03:33:08;;;;;;;5.22;1.38;;;;;;;10.86;76.17;99570.44;5030759;28;20056;-74
2023/11/16 03:35:35;;;;;;;12.30;2.10;;;;;;;10.87;76.40;99569.47;5030838;28;20168;-74
2023/11/16 03:38:02;;;;;;;7.07;1.73;;;;;;;10.89;76.24;99572.03;5031044;28;20049;-75
2023/11/16 03:40:30;;;;;;;6.40;1.45;;;;;;;10.90;76.31;99577.19;5030653;28;20085;-74
2023/11/16 03:42:57;;;;;;;4.97;1.48;;;;;;;10.91;76.33;99572.75;5030758;28;20058;-76
2023/11/16 03:45:23;;;;;;;10.68;1.48;;;;;;;10.92;76.26;99582.38;5030750;28;20053;-74
2023/11/16 03:47:50;;;;;;;7.28;2.00;;;;;;;10.92;76.13;99577.94;5030658;28;20053;-73
2023/11/16 03:50:17;;;;;;;6.55;1.80;;;;;;;10.92;76.10;99575.31;5030571;28;20049;-77
2023/11/16 03:52:45;;;;;;;6.07;1.55;;;;;;;10.92;76.13;99582.38;5030671;28;20045;-74
2023/11/16 03:55:12;;;;;;;13.55;2.17;;;;;;;10.92;76.22;99577.09;5030853;28;20052;-73
2023/11/16 03:57:39;;;;;;;8.10;1.70;;;;;;;10.91;76.19;99581.53;5030508;28;20482;-75
2023/11/16 04:00:07;;;;;;;5.18;1.17;;;;;;;10.93;76.18;99576.16;5030694;28;20111;-73
2023/11/16 04:02:35;;;;;;;9.07;1.75;;;;;;;10.92;76.21;99577.09;5028986;28;20140;-76
2023/11/16 04:05:04;;;;;;;10.55;1.50;;;;;;;10.92;75.99;99577.09;5030517;28;20508;-74
2023/11/16 04:07:35;;;;;;;4.28;1.40;;;;;;;10.91;75.41;99580.66;5030536;28;20053;-75
2023/11/16 04:10:04;;;;;;;6.78;1.27;;;;;;;10.89;75.68;99572.03;5030572;28;20060;-74
2023/11/16 04:12:31;;;;;;;6.97;1.30;;;;;;;10.87;75.50;99579.19;5030118;28;20065;-75
2023/11/16 04:14:58;;;;;;;6.82;1.02;;;;;;;10.85;75.53;99589.81;5030419;28;20510;-73
2023/11/16 04:17:26;;;;;;;2.15;1.00;;;;;;;10.84;75.62;99595.16;5030130;28;20451;-73
2023/11/16 04:19:53;;;;;;;12.63;1.52;;;;;;;10.82;75.54;99589.97;5030421;28;20653;-73
2023/11/16 04:22:21;;;;;;;6.65;1.00;;;;;;;10.80;75.58;99592.72;5027408;28;20053;-75
2023/11/16 04:24:51;;;;;;;5.50;1.13;;;;;;;10.80;75.31;99589.22;5022984;28;20049;-74
2023/11/16 04:27:20;;;;;;;7.45;1.20;;;;;;;10.79;75.32;99591.03;5025227;28;20433;-73
2023/11/16 04:29:47;;;;;;;3.97;1.25;;;;;;;10.79;75.34;99584.91;5021769;28;20124;-75
2023/11/16 04:32:14;;;;;;;2.70;0.68;;;;;;;10.77;75.26;99586.78;5025966;28;20084;-75
2023/11/16 04:34:42;;;;;;;9.95;1.08;;;;;;;10.75;75.29;99592.16;5026161;28;20093;-76
2023/11/16 04:37:10;;;;;;;2.10;0.70;;;;;;;10.75;75.37;99583.38;5029903;28;20123;-75
2023/11/16 04:39:37;;;;;;;8.93;1.05;;;;;;;10.73;75.29;99588.75;5027866;28;20494;-75
2023/11/16 04:42:04;;;;;;;7.18;1.05;;;;;;;10.74;75.32;99598.34;5029999;28;20486;-73
2023/11/16 04:44:33;;;;;;;4.13;1.00;;;;;;;10.73;75.26;99601.91;5028194;28;20123;-74
2023/11/16 04:47:00;;;;;;;3.30;0.77;;;;;;;10.74;75.26;99595.72;5021340;28;20045;-73
2023/11/16 04:49:26;;;;;;;4.63;1.02;;;;;;;10.75;75.19;99596.56;5029766;28;20057;-74
2023/11/16 04:51:53;;;;;;;7.60;0.82;;;;;;;10.73;75.59;99596.63;5030219;28;20100;-75
2023/11/16 04:54:20;;;;;;;2.65;0.52;;;;;;;10.74;75.37;99597.50;5027302;28;20041;-74
2023/11/16 04:56:46;;;;;;;8.70;1.55;;;;;;;10.74;75.25;99600.13;5033351;28;20050;-73
2023/11/16 04:59:13;;;;;;;5.63;1.05;;;;;;;10.74;75.07;99602.75;5033635;28;20061;-74
2023/11/16 05:01:39;;;;;;;3.35;0.75;;;;;;;10.73;74.98;99607.16;5033604;28;20183;-73
2023/11/16 05:04:07;;;;;;;6.10;1.35;;;;;;;10.71;74.97;99614.31;5031935;28;20053;-77
2023/11/16 05:06:39;;;;;;;8.57;1.52;;;;;;;10.67;74.24;99620.72;5031647;28;20042;-76
2023/11/16 05:09:06;;;;;;;9.20;1.88;;;;;;;10.67;74.80;99612.81;5033616;28;20049;-75
2023/11/16 05:11:33;;;;;;;5.68;1.20;;;;;;;10.65;74.95;99607.63;5033045;28;20076;-74
2023/11/16 05:13:59;;;;;;;4.10;0.90;;;;;;;10.64;74.93;99602.47;5033620;28;20057;-75
2023/11/16 05:16:27;;;;;;;8.32;1.10;;;;;;;10.62;75.23;99615.72;5031380;28;20053;-75
2023/11/16 05:18:54;;;;;;;7.57;1.27;;;;;;;10.61;75.15;99610.56;5025820;28;20100;-75
2023/11/16 05:21:21;;;;;;;12.45;1.40;;;;;;;10.60;75.22;99614.09;5033341;28;20417;-73
2023/11/16 05:23:49;;;;;;;9.27;1.25;;;;;;;10.59;75.14;99607.16;5033261;28;20150;-75
2023/11/16 05:26:17;;;;;;;7.93;1.25;;;;;;;10.58;75.22;99611.56;5026297;28;20050;-75
2023/11/16 05:28:43;;;;;;;6.53;1.15;;;;;;;10.55;75.01;99615.22;5033001;28;20496;-75
2023/11/16 05:31:11;;;;;;;6.15;1.23;;;;;;;10.55;75.02;99622.28;5032801;28;20050;-75
2023/11/16 05:33:39;;;;;;;6.65;1.10;;;;;;;10.52;74.99;99611.94;5032974;28;20056;-74
2023/11/16 05:36:11;;;;;;;8.25;1.27;;;;;;;10.50;74.70;99614.66;5010232;28;20076;-77
2023/11/16 05:38:37;;;;;;;3.72;1.10;;;;;;;10.47;74.95;99617.47;5031189;28;20143;-73
2023/11/16 05:41:04;;;;;;;5.22;0.93;;;;;;;10.45;74.80;99619.34;5033118;28;20134;-75
2023/11/16 05:43:31;;;;;;;5.30;1.00;;;;;;;10.41;74.79;99628.34;5032878;28;20061;-75
2023/11/16 05:45:57;;;;;;;5.25;0.95;;;;;;;10.39;74.73;99632.84;5029962;28;20052;-73
2023/11/16 05:48:24;;;;;;;8.35;1.40;;;;;;;10.36;75.03;99631.22;5029082;28;20406;-77
2023/11/16 05:50:51;;;;;;;4.70;0.90;;;;;;;10.35;75.39;99634.78;5027839;28;20049;-75
2023/11/16 05:53:18;;;;;;;7.47;1.00;;;;;;;10.34;75.47;99632.25;5032471;28;20046;-75
2023/11/16 05:55:44;;;;;;;5.55;1.05;;;;;;;10.34;75.36;99632.25;5031784;28;20212;-73
2023/11/16 05:58:11;;;;;;;7.30;1.08;;;;;;;10.33;75.03;99643.72;5026589;28;20046;-75
2023/11/16 06:00:37;;;;;;;2.97;0.93;;;;;;;10.32;75.08;99628.88;5032614;28;20046;-73
2023/11/16 06:03:05;;;;;;;4.13;0.82;;;;;;;10.30;74.74;99636.84;5014896;28;20072;-73
2023/11/16 06:05:35;;;;;;;9.02;1.75;;;;;;;10.25;74.62;99639.72;5032471;28;20108;-73
2023/11/16 06:08:03;;;;;;;5.78;1.10;;;;;;;10.22;74.43;99646.97;5015253;28;20045;-75
2023/11/16 06:10:30;;;;;;;7.75;2.08;;;;;;;10.18;74.11;99646.31;5032690;28;20056;-73
2023/11/16 06:12:58;;;;;;;5.63;1.17;;;;;;;10.12;74.05;99642.22;5032389;28;20111;-75
2023/11/16 06:15:28;;;;;;;5.30;1.00;;;;;;;10.07;74.34;99644.28;5024602;28;20098;-75
2023/11/16 06:17:57;;;;;;;8.23;1.40;;;;;;;10.02;74.26;99646.34;5014974;28;20528;-75
2023/11/16 06:20:24;;;;;;;6.80;1.63;;;;;;;9.96;74.44;99642.25;5032609;28;20060;-74
2023/11/16 06:22:51;;;;;;;4.97;1.52;;;;;;;9.91;74.43;99639.88;5032330;28;20139;-76
2023/11/16 06:25:18;;;;;;;4.03;1.15;;;;;;;9.88;74.56;99644.47;5032138;28;20057;-76
2023/11/16 06:27:46;;;;;;;5.43;1.30;;;;;;;9.84;74.45;99648.22;5032122;28;20080;-76
2023/11/16 06:30:13;;;;;;;4.40;1.25;;;;;;;9.80;74.67;99654.56;5014644;28;20063;-76
2023/11/16 06:32:42;;;;;;;11.43;1.75;;;;;;;9.76;74.53;99651.28;5031842;28;20108;-77
2023/11/16 06:35:10;;;;;;;7.80;1.13;;;;;;;9.70;74.56;99649.81;5014524;28;20045;-77
2023/11/16 06:37:37;;;;;;;8.50;1.58;;;;;;;9.67;74.69;99657.00;5032081;28;20049;-76
2023/11/16 06:40:08;;;;;;;6.15;0.90;;;;;;;9.63;74.58;99661.59;5032071;28;20490;-77
2023/11/16 06:42:36;;;;;;;7.07;1.02;;;;;;;9.58;74.66;99653.97;5031646;28;20053;-77
2023/11/16 06:45:07;;;;;;;5.97;1.27;;;;;;;9.53;74.21;99655.97;5014403;28;20049;-75
2023/11/16 06:47:34;;;;;;;8.80;1.42;;;;;;;9.50;74.70;99659.63;5014115;28;20057;-76
2023/11/16 06:50:05;;;;;;;6.50;1.52;;;;;;;9.46;74.72;99660.72;5031939;28;20046;-75
2023/11/16 06:52:36;;;;;;;8.20;1.40;;;;;;;9.43;74.99;99655.66;5014115;28;20108;-74
2023/11/16 06:55:04;;;;;;;9.73;1.67;;;;;;;9.38;75.10;99653.25;5024537;28;20049;-78
2023/11/16 06:57:31;;;;;;;5.25;1.35;;;;;;;9.37;75.33;99655.97;5031509;28;20132;-76
2023/11/16 06:59:57;;;;;;;9.45;1.42;;;;;;;9.33;75.36;99650.03;5031605;28;20063;-77
2023/11/16 07:02:24;;;;;;;4.88;1.08;;;;;;;9.31;75.33;99654.50;5031587;28;20057;-76
2023/11/16 07:04:51;;;;;;;5.75;1.48;;;;;;;9.29;75.55;99656.38;5031593;28;20053;-76
2023/11/16 07:07:18;;;;;;;5.93;2.30;;;;;;;9.27;75.64;99660.84;5031607;28;20065;-76
2023/11/16 07:09:46;;;;;;;4.28;1.25;;;;;;;9.24;75.55;99659.25;5031494;28;20049;-77
2023/11/16 07:12:14;;;;;;;6.32;1.60;;;;;;;9.22;75.80;99658.50;5031117;28;20049;-76
2023/11/16 07:14:41;;;;;;;8.43;1.50;;;;;;;9.21;75.86;99659.44;5030910;28;20042;-75
2023/11/16 07:17:18;;;;;;;7.63;1.33;;;;;;;9.21;75.89;99653.31;5031320;28;20164;-77
2023/11/16 07:19:47;;;;;;;8.55;1.50;;;;;;;9.19;75.95;99653.41;5031390;28;20085;-76
2023/11/16 07:22:13;;;;;;;8.15;1.77;;;;;;;9.20;76.25;99644.59;5031154;28;20103;-76
2023/11/16 07:24:43;;;;;;;3.25;1.20;;;;;;;9.20;76.09;99654.25;5031113;28;20059;-77
2023/11/16 07:27:12;;;;;;;7.63;1.60;;;;;;;9.18;75.99;99651.72;5031060;28;20068;-76
2023/11/16 07:29:42;;;;;;;10.85;1.80;;;;;;;9.18;76.22;99656.09;5013700;28;20057;-76
2023/11/16 07:32:11;;;;;;;5.43;1.42;;;;;;;9.18;76.08;99653.47;5031019;28;20066;-76
2023/11/16 07:34:39;;;;;;;5.45;1.77;;;;;;;9.17;76.35;99654.41;5030923;28;20041;-76
2023/11/16 07:37:06;;;;;;;10.48;1.50;;;;;;;9.17;76.45;99649.16;5030963;28;20053;-77
2023/11/16 07:39:32;;;;;;;4.50;1.80;;;;;;;9.17;76.90;99650.03;5030778;28;20406;-76
2023/11/16 07:41:59;;;;;;;7.10;2.28;;;;;;;9.18;76.83;99640.34;5113946;23;20108;-77
2023/11/16 07:44:26;;;;;;;6.80;2.63;;;;;;;9.20;77.25;99635.88;5031305;28;20076;-81
2023/11/16 07:46:53;;;;;;;11.02;3.03;;;;;;;9.21;77.51;99630.53;5022960;28;20418;-78
2023/11/16 07:49:19;;;;;;;9.05;3.58;;;;;;;9.25;77.52;99633.84;5030888;28;20044;-76
2023/11/16 07:51:46;;;;;;;11.65;4.57;;;;;;;9.29;77.85;99638.00;5022816;28;20060;-83
2023/11/16 07:54:15;;;;;;;8.73;4.65;;;;;;;9.32;77.86;99642.25;5013594;28;20045;-79
2023/11/16 07:56:49;;;;;;;11.38;4.75;;;;;;;9.36;77.73;99638.53;5030285;28;20766;-81
2023/11/16 07:59:18;;;;;;;13.45;6.05;;;;;;;9.40;77.91;99637.44;5007144;28;20056;-83
2023/11/16 08:01:55;;;;;;;26.85;6.00;;;;;;;9.44;78.10;99628.44;5030593;28;20478;-80
2023/11/16 08:04:25;;;;;;;38.20;5.55;;;;;;;9.49;77.92;99636.06;5030854;28;20073;-80
2023/11/16 08:06:56;;;;;;;13.80;4.63;;;;;;;9.52;77.88;99622.75;5013529;28;20053;-82
2023/11/16 08:09:30;;;;;;;12.00;4.57;;;;;;;9.59;78.20;99625.91;5030853;28;20589;-82
2023/11/16 08:11:59;;;;;;;6.78;4.20;;;;;;;9.62;78.37;99626.59;5012942;28;20046;-80
2023/11/16 08:14:26;;;;;;;7.50;4.63;;;;;;;9.67;78.21;99630.72;5030780;28;20049;-78
2023/11/16 08:16:56;;;;;;;14.95;4.60;;;;;;;9.71;78.36;99634.88;5030655;28;20049;-80
2023/11/16 08:19:25;;;;;;;6.35;3.35;;;;;;;9.75;78.02;99639.91;5030710;28;20049;-78
2023/11/16 08:21:55;;;;;;;5.40;3.53;;;;;;;9.78;77.76;99626.59;5030540;28;20053;-83
2023/11/16 08:24:23;;;;;;;11.02;3.92;;;;;;;9.81;77.32;99629.97;5025380;28;20125;-80
2023/11/16 08:26:51;;;;;;;9.77;4.10;;;;;;;9.82;77.16;99634.28;5028886;28;20046;-81
2023/11/16 08:29:18;;;;;;;14.73;4.25;;;;;;;9.82;77.22;99631.66;5034490;28;20049;-79
2023/11/16 08:31:52;;;;;;;11.00;4.57;;;;;;;9.83;77.54;99630.75;5034399;28;20132;-81
2023/11/16 08:34:20;;;;;;;10.27;4.95;;;;;;;9.84;77.83;99629.81;5035127;28;20049;-80
2023/11/16 08:36:47;;;;;;;10.90;5.13;;;;;;;9.87;77.78;99627.84;5034396;28;20529;-81
2023/11/16 08:39:17;;;;;;;9.52;4.65;;;;;;;9.90;77.13;99626.81;5034625;28;20060;-81
2023/11/16 08:41:45;;;;;;;8.40;4.82;;;;;;;9.91;77.32;99631.16;5034021;28;20049;-80
2023/11/16 08:44:11;;;;;;;9.13;5.32;;;;;;;9.93;77.33;99624.03;5026953;28;20045;-82
2023/11/16 08:46:43;;;;;;;9.20;5.13;;;;;;;9.94;77.18;99628.34;5034254;28;20100;-80
2023/11/16 08:49:10;;;;;;;11.70;6.70;;;;;;;9.95;77.02;99624.78;5015044;28;20129;-79
2023/11/16 08:51:38;;;;;;;14.10;6.75;;;;;;;9.96;76.84;99621.22;5014691;28;20107;-78
2023/11/16 08:54:08;;;;;;;12.35;6.38;;;;;;;9.96;76.77;99626.50;5025633;28;20906;-81
2023/11/16 08:56:36;;;;;;;13.50;5.85;;;;;;;9.97;76.67;99628.16;5034023;28;20487;-80
2023/11/16 08:59:08;;;;;;;14.75;5.47;;;;;;;9.97;76.79;99627.31;5017266;28;20457;-79
2023/11/16 09:01:37;;;;;;;8.43;5.35;;;;;;;9.99;76.54;99641.25;5016304;28;20107;-81
2023/11/16 09:04:05;;;;;;;7.68;4.80;;;;;;;9.98;76.83;99650.06;5025915;28;20496;-79
2023/11/16 09:06:32;;;;;;;11.65;4.70;;;;;;;9.99;76.70;99649.97;5034018;28;20045;-80
2023/11/16 09:09:09;;;;;;;10.55;4.97;;;;;;;10.01;77.03;99655.13;5033751;28;20050;-80
2023/11/16 09:11:36;;;;;;;6.30;4.90;;;;;;;10.03;77.71;99648.84;5033946;28;20102;-80
2023/11/16 09:14:04;;;;;;;10.05;6.38;;;;;;;10.08;78.24;99642.47;5033932;28;20060;-81
2023/11/16 09:16:31;;;;;;;16.15;6.68;;;;;;;10.13;78.22;99636.03;5033816;28;20502;-81
2023/11/16 09:18:58;;;;;;;12.90;8.63;;;;;;;10.22;78.39;99634.66;5033695;28;20050;-78
2023/11/16 09:21:26;;;;;;;13.90;9.02;;;;;;;10.28;78.09;99623.78;5028389;28;20109;-78
2023/11/16 09:23:54;;;;;;;12.23;7.82;;;;;;;10.34;77.50;99619.94;5031025;28;20084;-79
2023/11/16 09:26:23;;;;;;;14.20;7.90;;;;;;;10.39;77.21;99609.16;5033936;28;20041;-80
2023/11/16 09:28:52;;;;;;;13.20;7.20;;;;;;;10.41;76.78;99605.50;5033729;28;20125;-79
2023/11/16 09:31:32;;;;;;;8.80;6.93;;;;;;;10.45;76.40;99598.31;5033564;28;20045;-84
2023/11/16 09:34:00;;;;;;;12.77;7.22;;;;;;;10.46;76.10;99593.91;4999861;28;20073;-78
2023/11/16 09:36:27;;;;;;;11.38;7.05;;;;;;;10.45;76.05;99595.66;5033775;28;20057;-81
2023/11/16 09:38:57;;;;;;;9.10;6.03;;;;;;;10.44;76.08;99586.09;5032618;28;20124;-79
2023/11/16 09:41:26;;;;;;;9.93;6.22;;;;;;;10.43;75.99;99593.09;5033240;28;20053;-80
2023/11/16 09:43:59;;;;;;;9.52;5.90;;;;;;;10.42;75.82;99604.56;5033182;28;20048;-79
2023/11/16 09:46:30;;;;;;;13.63;5.72;;;;;;;10.43;76.00;99603.63;5033301;28;20120;-79
2023/11/16 09:49:05;;;;;;;11.02;6.03;;;;;;;10.44;76.01;99609.78;5033102;28;20053;-81
2023/11/16 09:51:36;;;;;;;11.38;5.22;;;;;;;10.42;75.49;99604.56;5033112;28;20052;-80
2023/11/16 09:54:08;;;;;;;8.93;4.75;;;;;;;10.45;76.38;99606.19;5032966;28;20056;-81
2023/11/16 09:56:36;;;;;;;9.25;4.32;;;;;;;10.46;76.34;99600.00;5033171;28;20037;-79
2023/11/16 09:59:13;;;;;;;6.30;4.13;;;;;;;10.48;76.10;99594.63;5032947;28;20058;-79
2023/11/16 10:01:46;;;;;;;;;;;;;;;10.49;75.16;99601.59;5025701;28;20045;-79
2023/11/16 10:04:14;;;;;;;8.68;4.15;;;;;;;10.54;76.30;99600.38;5032932;28;19928;-78
2023/11/16 10:06:48;;;;;;;6.28;3.88;;;;;;;10.55;76.41;99601.25;5032952;28;20038;-78
2023/11/16 10:09:15;;;;;;;8.95;4.68;;;;;;;10.57;76.63;99598.53;5015192;28;20112;-81
2023/11/16 10:11:42;;;;;;;7.20;3.92;;;;;;;10.59;76.64;99599.25;5032588;28;20053;-80
2023/11/16 10:14:09;;;;;;;7.70;4.50;;;;;;;10.61;76.59;99587.69;5032832;28;20089;-78
2023/11/16 10:16:36;;;;;;;8.20;4.40;;;;;;;10.65;76.85;99585.75;5032719;28;20490;-81
2023/11/16 10:19:06;;;;;;;12.50;4.32;;;;;;;10.70;77.03;99581.06;5032506;28;20049;-80
2023/11/16 10:21:34;;;;;;;5.47;3.70;;;;;;;10.75;77.10;99578.97;5032392;28;20077;-79
2023/11/16 10:24:11;;;;;;;8.68;4.68;;;;;;;10.80;75.83;99578.69;5032435;28;20048;-79
2023/11/16 10:26:40;;;;;;;9.73;4.32;;;;;;;10.90;77.53;99584.25;5032740;28;20038;-79
2023/11/16 10:29:11;;;;;;;7.90;5.07;;;;;;;10.99;77.31;99580.22;5032722;28;20088;-83
2023/11/16 10:31:44;;;;;;;11.00;4.82;;;;;;;11.07;77.51;99583.22;5032306;28;20048;-78
2023/11/16 10:34:12;;;;;;;17.67;4.80;;;;;;;11.17;77.51;99586.09;5032460;28;20052;-79
2023/11/16 10:36:39;;;;;;;8.88;4.70;;;;;;;11.26;77.36;99577.66;5032238;28;20049;-79
2023/11/16 10:39:11;;;;;;;7.68;4.10;;;;;;;11.35;77.30;99576.22;5032015;28;20536;-82
2023/11/16 10:41:39;;;;;;;12.45;4.28;;;;;;;11.44;77.02;99577.44;5032111;28;20513;-79
2023/11/16 10:44:07;;;;;;;8.18;4.40;;;;;;;11.53;76.87;99562.78;5032101;28;20132;-79
2023/11/16 10:46:35;;;;;;;11.98;4.10;;;;;;;11.63;77.03;99568.34;5032084;28;20621;-77
2023/11/16 10:49:01;;;;;;;7.43;4.45;;;;;;;11.72;76.86;99573.88;5031652;28;20049;-80
2023/11/16 10:51:29;;;;;;;7.10;4.43;;;;;;;11.79;76.69;99563.75;5031202;28;20049;-80
2023/11/16 10:54:01;;;;;;;9.48;4.28;;;;;;;11.86;75.68;99551.84;5014378;28;20056;-79
2023/11/16 10:56:30;;;;;;;6.78;3.70;;;;;;;11.96;76.31;99551.25;5024975;28;20041;-80
2023/11/16 10:59:05;;;;;;;10.68;3.75;;;;;;;12.04;75.45;99551.56;5031823;28;20128;-79
2023/11/16 11:01:34;;;;;;;7.05;3.63;;;;;;;12.11;75.66;99544.13;5025366;28;20049;-82
2023/11/16 11:04:01;;;;;;;7.43;3.45;;;;;;;12.20;75.87;99542.66;5031923;28;20045;-80
2023/11/16 11:06:28;;;;;;;5.97;3.20;;;;;;;12.27;75.61;99525.47;5010049;28;20062;-82
2023/11/16 11:08:57;;;;;;;5.22;3.10;;;;;;;12.32;74.88;99517.22;5020232;28;20133;-79
2023/11/16 11:11:26;;;;;;;5.40;2.70;;;;;;;12.42;75.34;99520.09;5023542;28;20049;-78
2023/11/16 11:13:55;;;;;;;8.52;2.80;;;;;;;12.48;74.93;99520.53;5031654;28;20140;-80
2023/11/16 11:16:25;;;;;;;5.85;2.97;;;;;;;12.56;74.15;99519.16;5031533;28;20064;-80
2023/11/16 11:18:52;;;;;;;4.68;2.45;;;;;;;12.60;74.08;99518.81;5031805;28;20092;-79
2023/11/16 11:21:21;;;;;;;6.53;2.78;;;;;;;12.64;73.85;99511.53;5031162;28;20088;-82
2023/11/16 11:23:59;;;;;;;5.45;2.63;;;;;;;12.63;70.73;99508.03;5031555;28;20088;-80
2023/11/16 11:26:43;;;;;;;3.83;2.10;;;;;;;12.67;70.75;99510.47;5023978;28;20049;-80
2023/11/16 11:29:12;;;;;;;4.70;2.10;;;;;;;12.75;73.22;99510.78;5031209;28;20054;-80
2023/11/16 11:32:37;;;;;;;7.35;2.40;;;;;;;12.72;70.13;99503.94;5031041;28;20627;-81
2023/11/16 11:35:09;;;;;;;5.93;2.35;;;;;;;12.80;71.83;99500.75;4931513;29;20412;-81
2023/11/16 11:37:39;;;;;;;5.97;2.47;;;;;;;12.85;72.81;99492.47;4931547;29;20538;-81
2023/11/16 11:40:07;;;;;;;6.43;2.53;;;;;;;12.86;72.78;99488.91;4986943;28;20476;-80